createdAt,value
2022-08-01T00:00:40.583Z,19.33
2022-08-01T00:05:45.464Z,19.29
2022-08-01T00:10:48.207Z,19.24
2022-08-01T00:15:54.078Z,19.29
2022-08-01T00:20:58.521Z,19.29
2022-08-01T00:26:01.596Z,19.31
2022-08-01T00:31:04.362Z,19.15
2022-08-01T00:36:08.597Z,19.24
2022-08-01T00:41:11.371Z,19.23
2022-08-01T00:46:14.114Z,19.24
2022-08-01T00:51:18.417Z,19.24
2022-08-01T00:56:22.057Z,19.15
2022-08-01T01:01:24.973Z,19.20
2022-08-01T01:06:50.686Z,19.11
2022-08-01T01:12:02.841Z,19.14
2022-08-01T01:17:08.864Z,19.22
2022-08-01T01:22:26.477Z,19.09
2022-08-01T01:27:38.758Z,19.15
2022-08-01T01:32:46.298Z,19.09
2022-08-01T01:37:50.138Z,19.01
2022-08-01T01:42:54.969Z,19.08
2022-08-01T01:47:59.267Z,18.99
2022-08-01T01:53:03.937Z,19.03
2022-08-01T01:58:08.540Z,18.88
2022-08-01T02:03:15.630Z,18.86
2022-08-01T02:08:18.885Z,18.91
2022-08-01T02:13:23.020Z,18.74
2022-08-01T02:18:27.282Z,18.83
2022-08-01T02:23:33.646Z,18.53
2022-08-01T02:28:39.818Z,18.64
2022-08-01T02:33:46.305Z,18.57
2022-08-01T02:38:48.889Z,18.48
2022-08-01T02:43:54.418Z,18.61
2022-08-01T02:49:01.412Z,18.52
2022-08-01T02:54:05.027Z,18.59
2022-08-01T02:59:10.645Z,18.49
2022-08-01T03:04:19.447Z,18.48
2022-08-01T03:09:22.503Z,18.46
2022-08-01T03:14:25.927Z,18.47
2022-08-01T03:19:32.433Z,18.54
2022-08-01T03:24:35.719Z,18.46
2022-08-01T03:29:38.700Z,18.33
2022-08-01T03:34:44.869Z,18.50
2022-08-01T03:39:50.086Z,18.36
2022-08-01T03:44:56.050Z,18.27
2022-08-01T03:50:00.276Z,18.31
2022-08-01T03:55:07.959Z,18.29
2022-08-01T04:00:11.993Z,18.37
2022-08-01T04:05:19.457Z,18.49
2022-08-01T04:10:22.340Z,18.36
2022-08-01T04:15:25.199Z,18.33
2022-08-01T04:20:29.435Z,18.35
2022-08-01T04:25:35.637Z,18.30
2022-08-01T04:30:39.844Z,18.40
2022-08-01T04:36:02.402Z,18.43
2022-08-01T04:41:09.840Z,18.57
2022-08-01T04:46:13.664Z,18.64
2022-08-01T04:51:19.126Z,18.49
2022-08-01T04:56:22.596Z,18.53
2022-08-01T05:01:25.363Z,18.67
2022-08-01T05:06:29.465Z,18.66
2022-08-01T05:11:32.158Z,18.85
2022-08-01T05:16:34.861Z,18.82
2022-08-01T05:21:38.961Z,18.86
2022-08-01T05:26:41.835Z,18.47
2022-08-01T05:31:44.689Z,18.56
2022-08-01T05:36:54.051Z,18.54
2022-08-01T05:41:59.586Z,18.66
2022-08-01T05:47:03.601Z,18.87
2022-08-01T05:52:08.504Z,18.81
2022-08-01T05:57:11.620Z,18.74
2022-08-01T06:02:15.283Z,19.00
2022-08-01T06:07:19.333Z,18.85
2022-08-01T06:12:22.035Z,19.12
2022-08-01T06:17:26.106Z,19.15
2022-08-01T06:22:30.152Z,19.20
2022-08-01T06:27:36.154Z,19.34
2022-08-01T06:32:38.984Z,19.24
2022-08-01T06:37:43.235Z,19.22
2022-08-01T06:42:46.692Z,19.37
2022-08-01T06:47:50.897Z,19.19
2022-08-01T06:52:55.043Z,19.22
2022-08-01T06:57:57.745Z,19.38
2022-08-01T07:03:00.912Z,18.77
2022-08-01T07:08:05.962Z,18.74
2022-08-01T07:13:08.669Z,18.77
2022-08-01T07:18:11.372Z,18.96
2022-08-01T07:23:15.451Z,19.04
2022-08-01T07:28:18.468Z,19.18
2022-08-01T07:33:21.287Z,19.28
2022-08-01T07:38:25.407Z,19.41
2022-08-01T07:43:28.109Z,19.32
2022-08-01T07:48:30.876Z,19.41
2022-08-01T07:53:35.034Z,18.87
2022-08-01T07:58:37.752Z,19.25
2022-08-01T08:03:40.479Z,19.22
2022-08-01T08:08:44.530Z,18.92
2022-08-01T08:13:47.473Z,19.23
2022-08-01T08:18:50.207Z,19.60
2022-08-01T08:24:11.805Z,19.92
2022-08-01T08:29:15.599Z,19.52
2022-08-01T08:34:18.838Z,19.19
2022-08-01T08:39:22.925Z,19.09
2022-08-01T08:44:25.717Z,19.11
2022-08-01T08:49:35.478Z,18.86
2022-08-01T08:54:43.310Z,18.92
2022-08-01T08:59:46.559Z,19.03
2022-08-01T09:04:50.433Z,19.31
2022-08-01T09:09:54.525Z,19.14
2022-08-01T09:14:57.339Z,19.29
2022-08-01T09:20:00.453Z,19.55
2022-08-01T09:25:06.726Z,19.55
2022-08-01T09:30:12.154Z,19.57
2022-08-01T09:35:31.000Z,19.81
2022-08-01T09:40:50.844Z,19.65
2022-08-01T09:45:54.028Z,19.35
2022-08-01T09:51:04.273Z,19.62
2022-08-01T09:56:12.867Z,19.63
2022-08-01T10:01:15.572Z,19.62
2022-08-01T10:06:24.717Z,19.79
2022-08-01T10:11:36.177Z,20.25
2022-08-01T10:16:39.847Z,20.53
2022-08-01T10:21:57.209Z,20.79
2022-08-01T10:27:09.052Z,20.95
2022-08-01T10:32:12.582Z,20.77
2022-08-01T10:37:16.030Z,20.32
2022-08-01T10:42:20.378Z,20.09
2022-08-01T10:47:50.020Z,20.56
2022-08-01T10:53:16.107Z,20.78
2022-08-01T10:58:29.917Z,20.62
2022-08-01T11:03:55.955Z,21.02
2022-08-01T11:09:00.026Z,20.77
2022-08-01T11:14:13.424Z,20.98
2022-08-01T11:19:17.322Z,21.15
2022-08-01T11:24:59.006Z,20.88
2022-08-01T11:30:27.836Z,21.21
2022-08-01T11:35:30.670Z,20.00
2022-08-01T11:40:34.771Z,20.36
2022-08-01T11:45:50.653Z,20.74
2022-08-01T11:50:54.579Z,19.88
2022-08-01T11:55:58.218Z,21.37
2022-08-01T12:01:02.277Z,20.98
2022-08-01T12:06:05.303Z,21.08
2022-08-01T12:11:08.093Z,20.53
2022-08-01T12:16:12.936Z,21.18
2022-08-01T12:21:15.717Z,20.73
2022-08-01T12:26:28.599Z,20.68
2022-08-01T12:31:36.463Z,20.48
2022-08-01T12:36:39.439Z,20.17
2022-08-01T12:41:44.862Z,20.40
2022-08-01T12:46:49.037Z,20.67
2022-08-01T12:51:57.493Z,20.97
2022-08-01T12:57:00.417Z,21.32
2022-08-01T13:02:13.469Z,21.76
2022-08-01T13:07:16.263Z,20.95
2022-08-01T13:12:18.993Z,21.24
2022-08-01T13:17:33.579Z,21.58
2022-08-01T13:22:40.317Z,22.20
2022-08-01T13:27:52.116Z,21.78
2022-08-01T13:33:01.757Z,21.54
2022-08-01T13:38:04.642Z,22.26
2022-08-01T13:43:07.321Z,21.91
2022-08-01T13:48:12.718Z,20.80
2022-08-01T13:53:21.345Z,22.31
2022-08-01T13:58:24.223Z,22.29
2022-08-01T14:03:33.756Z,20.98
2022-08-01T14:08:36.805Z,22.56
2022-08-01T14:13:46.895Z,21.85
2022-08-01T14:18:51.294Z,22.50
2022-08-01T14:23:53.992Z,21.33
2022-08-01T14:28:56.702Z,22.53
2022-08-01T14:34:00.756Z,22.57
2022-08-01T14:39:03.507Z,22.83
2022-08-01T14:44:07.237Z,21.89
2022-08-01T14:49:11.512Z,22.03
2022-08-01T14:54:14.411Z,22.23
2022-08-01T14:59:21.517Z,22.61
2022-08-01T15:04:26.542Z,21.20
2022-08-01T15:09:29.426Z,22.34
2022-08-01T15:14:50.819Z,22.20
2022-08-01T15:19:55.969Z,22.67
2022-08-01T15:24:59.821Z,21.73
2022-08-01T15:30:02.540Z,21.89
2022-08-01T15:35:08.285Z,22.23
2022-08-01T15:40:12.225Z,21.68
2022-08-01T15:45:44.600Z,21.77
2022-08-01T15:50:42.840Z,21.72
2022-08-01T15:55:52.009Z,21.97
2022-08-01T16:00:55.277Z,22.24
2022-08-01T16:05:59.378Z,21.43
2022-08-01T16:11:02.085Z,21.61
2022-08-01T16:16:04.950Z,21.76
2022-08-01T16:21:11.555Z,21.94
2022-08-01T16:26:27.449Z,22.14
2022-08-01T16:31:43.863Z,21.58
2022-08-01T16:36:56.104Z,21.41
2022-08-01T16:41:58.805Z,21.85
2022-08-01T16:47:02.045Z,21.95
2022-08-01T16:52:07.328Z,21.25
2022-08-01T16:57:10.722Z,21.69
2022-08-01T17:02:13.644Z,21.60
2022-08-01T17:07:17.738Z,21.94
2022-08-01T17:12:21.956Z,21.17
2022-08-01T17:17:25.500Z,21.35
2022-08-01T17:22:30.160Z,21.58
2022-08-01T17:27:32.894Z,21.60
2022-08-01T17:32:36.210Z,21.42
2022-08-01T17:37:40.358Z,20.98
2022-08-01T17:42:43.097Z,21.38
2022-08-01T17:47:50.783Z,21.40
2022-08-01T17:52:55.184Z,21.08
2022-08-01T17:57:57.916Z,21.10
2022-08-01T18:03:00.644Z,20.85
2022-08-01T18:08:07.300Z,20.96
2022-08-01T18:13:10.255Z,20.92
2022-08-01T18:18:14.001Z,20.88
2022-08-01T18:23:18.045Z,20.78
2022-08-01T18:28:31.677Z,20.52
2022-08-01T18:33:37.289Z,20.79
2022-08-01T18:38:44.223Z,20.66
2022-08-01T18:43:48.562Z,20.43
2022-08-01T18:48:51.333Z,20.38
2022-08-01T18:53:57.699Z,20.40
2022-08-01T18:59:00.223Z,20.31
2022-08-01T19:04:02.975Z,20.50
2022-08-01T19:09:07.368Z,20.46
2022-08-01T19:14:10.116Z,20.27
2022-08-01T19:19:14.123Z,20.22
2022-08-01T19:24:23.348Z,20.24
2022-08-01T19:29:35.274Z,20.18
2022-08-01T19:34:44.456Z,20.06
2022-08-01T19:39:48.514Z,19.94
2022-08-01T19:44:52.169Z,19.88
2022-08-01T19:49:55.322Z,19.82
2022-08-01T19:54:59.354Z,19.73
2022-08-01T20:00:03.097Z,19.65
2022-08-01T20:05:08.090Z,19.52
2022-08-01T20:10:12.242Z,19.43
2022-08-01T20:15:15.136Z,19.22
2022-08-01T20:20:18.180Z,19.35
2022-08-01T20:25:23.900Z,19.20
2022-08-01T20:30:28.403Z,19.10
2022-08-01T20:35:51.808Z,19.25
2022-08-01T20:40:58.445Z,19.08
2022-08-01T20:46:01.506Z,19.07
2022-08-01T20:51:16.529Z,18.97
2022-08-01T20:56:30.760Z,18.81
2022-08-01T21:01:39.804Z,18.88
2022-08-01T21:06:47.277Z,18.63
2022-08-01T21:11:52.626Z,18.70
2022-08-01T21:16:59.868Z,18.60
2022-08-01T21:22:10.094Z,18.48
2022-08-01T21:27:16.941Z,18.50
2022-08-01T21:32:19.524Z,18.44
2022-08-01T21:37:22.954Z,18.40
2022-08-01T21:42:28.074Z,18.36
2022-08-01T21:47:31.057Z,18.24
2022-08-01T21:52:44.632Z,18.18
2022-08-01T21:58:11.010Z,18.13
2022-08-01T22:03:23.486Z,18.08
2022-08-01T22:08:36.365Z,18.00
2022-08-01T22:13:41.965Z,17.91
2022-08-01T22:18:45.317Z,17.90
2022-08-01T22:23:48.560Z,17.80
2022-08-01T22:28:53.199Z,17.71
2022-08-01T22:33:55.944Z,17.73
2022-08-01T22:38:58.620Z,17.62
2022-08-01T22:44:05.454Z,17.51
2022-08-01T22:49:19.173Z,17.58
2022-08-01T22:54:24.404Z,17.36
2022-08-01T22:59:42.421Z,17.40
2022-08-01T23:04:47.570Z,17.32
2022-08-01T23:09:54.527Z,17.28
2022-08-01T23:15:00.999Z,17.08
2022-08-01T23:20:06.534Z,16.86
2022-08-01T23:25:11.571Z,16.74
2022-08-01T23:30:15.877Z,16.28
2022-08-01T23:35:18.729Z,15.91
2022-08-01T23:40:24.774Z,15.76
2022-08-01T23:46:02.015Z,15.76
2022-08-01T23:50:52.404Z,15.83
2022-08-01T23:55:55.070Z,15.98
